sensor_id;sensor_type;location;lat;lon;timestamp;P1;durP1;ratioP1;P2;durP2;ratioP2
39022;SDS011;25908;51.984;5.928;2023-06-10T00:00:39;5.07;;;4.32;;
39022;SDS011;25908;51.984;5.928;2023-06-10T00:03:06;5.38;;;3.90;;
39022;SDS011;25908;51.984;5.928;2023-06-10T00:05:32;8.27;;;5.05;;
39022;SDS011;25908;51.984;5.928;2023-06-10T00:07:59;6.65;;;5.18;;
39022;SDS011;25908;51.984;5.928;2023-06-10T00:10:31;6.25;;;4.93;;
39022;SDS011;25908;51.984;5.928;2023-06-10T00:13:01;6.47;;;4.60;;
39022;SDS011;25908;51.984;5.928;2023-06-10T00:15:28;7.53;;;4.88;;
39022;SDS011;25908;51.984;5.928;2023-06-10T00:17:54;6.68;;;4.07;;
39022;SDS011;25908;51.984;5.928;2023-06-10T00:20:20;6.47;;;4.80;;
39022;SDS011;25908;51.984;5.928;2023-06-10T00:22:48;6.80;;;4.88;;
39022;SDS011;25908;51.984;5.928;2023-06-10T00:25:14;6.47;;;4.55;;
39022;SDS011;25908;51.984;5.928;2023-06-10T00:27:40;6.28;;;4.65;;
39022;SDS011;25908;51.984;5.928;2023-06-10T00:30:06;6.03;;;4.30;;
39022;SDS011;25908;51.984;5.928;2023-06-10T00:32:32;7.45;;;4.65;;
39022;SDS011;25908;51.984;5.928;2023-06-10T00:34:58;5.40;;;4.30;;
39022;SDS011;25908;51.984;5.928;2023-06-10T00:37:24;6.22;;;4.57;;
39022;SDS011;25908;51.984;5.928;2023-06-10T00:39:49;5.78;;;4.22;;
39022;SDS011;25908;51.984;5.928;2023-06-10T00:42:15;7.15;;;4.57;;
39022;SDS011;25908;51.984;5.928;2023-06-10T00:44:41;6.57;;;4.35;;
39022;SDS011;25908;51.984;5.928;2023-06-10T00:47:06;5.50;;;4.25;;
39022;SDS011;25908;51.984;5.928;2023-06-10T00:49:32;6.60;;;4.22;;
39022;SDS011;25908;51.984;5.928;2023-06-10T00:51:59;5.53;;;4.20;;
39022;SDS011;25908;51.984;5.928;2023-06-10T00:54:27;5.28;;;4.03;;
39022;SDS011;25908;51.984;5.928;2023-06-10T00:56:53;5.93;;;4.30;;
39022;SDS011;25908;51.984;5.928;2023-06-10T00:59:19;5.18;;;3.88;;
39022;SDS011;25908;51.984;5.928;2023-06-10T01:01:45;7.63;;;4.65;;
39022;SDS011;25908;51.984;5.928;2023-06-10T01:04:12;5.88;;;4.50;;
39022;SDS011;25908;51.984;5.928;2023-06-10T01:12:07;5.85;;;4.07;;
39022;SDS011;25908;51.984;5.928;2023-06-10T01:14:40;5.80;;;4.15;;
39022;SDS011;25908;51.984;5.928;2023-06-10T01:17:10;6.50;;;4.45;;
39022;SDS011;25908;51.984;5.928;2023-06-10T01:19:36;6.60;;;4.28;;
39022;SDS011;25908;51.984;5.928;2023-06-10T01:22:02;7.35;;;4.95;;
39022;SDS011;25908;51.984;5.928;2023-06-10T01:24:28;5.35;;;4.30;;
39022;SDS011;25908;51.984;5.928;2023-06-10T01:26:57;6.13;;;3.80;;
39022;SDS011;25908;51.984;5.928;2023-06-10T01:29:28;6.78;;;4.25;;
39022;SDS011;25908;51.984;5.928;2023-06-10T01:32:12;5.72;;;4.10;;
39022;SDS011;25908;51.984;5.928;2023-06-10T01:34:42;5.00;;;3.85;;
39022;SDS011;25908;51.984;5.928;2023-06-10T01:37:10;5.38;;;3.78;;
39022;SDS011;25908;51.984;5.928;2023-06-10T01:39:38;5.70;;;3.95;;
39022;SDS011;25908;51.984;5.928;2023-06-10T01:42:04;6.65;;;3.80;;
39022;SDS011;25908;51.984;5.928;2023-06-10T01:44:31;8.55;;;4.40;;
39022;SDS011;25908;51.984;5.928;2023-06-10T01:46:57;6.68;;;4.32;;
39022;SDS011;25908;51.984;5.928;2023-06-10T01:49:22;7.07;;;3.95;;
39022;SDS011;25908;51.984;5.928;2023-06-10T01:51:49;5.60;;;3.60;;
39022;SDS011;25908;51.984;5.928;2023-06-10T01:54:15;5.72;;;4.13;;
39022;SDS011;25908;51.984;5.928;2023-06-10T01:56:40;7.18;;;4.82;;
39022;SDS011;25908;51.984;5.928;2023-06-10T01:59:06;6.25;;;4.13;;
39022;SDS011;25908;51.984;5.928;2023-06-10T02:01:31;6.05;;;4.00;;
39022;SDS011;25908;51.984;5.928;2023-06-10T02:03:57;6.32;;;4.20;;
39022;SDS011;25908;51.984;5.928;2023-06-10T02:06:23;7.43;;;4.20;;
39022;SDS011;25908;51.984;5.928;2023-06-10T02:08:48;5.07;;;3.60;;
39022;SDS011;25908;51.984;5.928;2023-06-10T02:11:14;5.47;;;3.85;;
39022;SDS011;25908;51.984;5.928;2023-06-10T02:13:39;7.13;;;4.40;;
39022;SDS011;25908;51.984;5.928;2023-06-10T02:16:05;6.10;;;4.50;;
39022;SDS011;25908;51.984;5.928;2023-06-10T02:18:31;8.85;;;4.20;;
39022;SDS011;25908;51.984;5.928;2023-06-10T02:20:56;6.68;;;3.75;;
39022;SDS011;25908;51.984;5.928;2023-06-10T02:23:22;7.18;;;4.40;;
39022;SDS011;25908;51.984;5.928;2023-06-10T02:25:47;7.72;;;4.93;;
39022;SDS011;25908;51.984;5.928;2023-06-10T02:28:13;6.18;;;3.80;;
39022;SDS011;25908;51.984;5.928;2023-06-10T02:30:40;5.85;;;4.00;;
39022;SDS011;25908;51.984;5.928;2023-06-10T02:33:06;9.95;;;4.20;;
39022;SDS011;25908;51.984;5.928;2023-06-10T02:35:34;6.35;;;4.13;;
39022;SDS011;25908;51.984;5.928;2023-06-10T02:38:01;8.50;;;4.35;;
39022;SDS011;25908;51.984;5.928;2023-06-10T02:40:27;7.00;;;4.05;;
39022;SDS011;25908;51.984;5.928;2023-06-10T02:42:53;6.78;;;4.10;;
39022;SDS011;25908;51.984;5.928;2023-06-10T02:45:18;5.45;;;4.10;;
39022;SDS011;25908;51.984;5.928;2023-06-10T02:47:44;7.35;;;4.45;;
39022;SDS011;25908;51.984;5.928;2023-06-10T02:50:09;6.68;;;4.13;;
39022;SDS011;25908;51.984;5.928;2023-06-10T02:52:35;7.07;;;3.72;;
39022;SDS011;25908;51.984;5.928;2023-06-10T02:55:00;6.32;;;4.57;;
39022;SDS011;25908;51.984;5.928;2023-06-10T02:57:26;6.70;;;4.57;;
39022;SDS011;25908;51.984;5.928;2023-06-10T02:59:51;5.70;;;4.20;;
39022;SDS011;25908;51.984;5.928;2023-06-10T03:02:18;5.40;;;4.00;;
39022;SDS011;25908;51.984;5.928;2023-06-10T03:04:44;7.55;;;4.28;;
39022;SDS011;25908;51.984;5.928;2023-06-10T03:07:10;6.38;;;4.57;;
39022;SDS011;25908;51.984;5.928;2023-06-10T03:09:36;6.40;;;4.22;;
39022;SDS011;25908;51.984;5.928;2023-06-10T03:12:02;4.95;;;3.67;;
39022;SDS011;25908;51.984;5.928;2023-06-10T03:14:28;7.40;;;4.65;;
39022;SDS011;25908;51.984;5.928;2023-06-10T03:16:53;7.00;;;4.50;;
39022;SDS011;25908;51.984;5.928;2023-06-10T03:19:19;7.03;;;4.78;;
39022;SDS011;25908;51.984;5.928;2023-06-10T03:21:49;7.30;;;4.45;;
39022;SDS011;25908;51.984;5.928;2023-06-10T03:24:19;6.10;;;4.10;;
39022;SDS011;25908;51.984;5.928;2023-06-10T03:26:45;8.95;;;4.70;;
39022;SDS011;25908;51.984;5.928;2023-06-10T03:29:11;7.03;;;4.18;;
39022;SDS011;25908;51.984;5.928;2023-06-10T03:31:36;7.15;;;4.78;;
39022;SDS011;25908;51.984;5.928;2023-06-10T03:34:03;7.05;;;5.03;;
39022;SDS011;25908;51.984;5.928;2023-06-10T03:36:29;6.13;;;4.22;;
39022;SDS011;25908;51.984;5.928;2023-06-10T03:38:55;8.02;;;4.32;;
39022;SDS011;25908;51.984;5.928;2023-06-10T03:41:21;7.45;;;4.53;;
39022;SDS011;25908;51.984;5.928;2023-06-10T03:43:47;8.85;;;4.68;;
39022;SDS011;25908;51.984;5.928;2023-06-10T03:46:13;6.35;;;4.60;;
39022;SDS011;25908;51.984;5.928;2023-06-10T03:48:39;8.13;;;4.28;;
39022;SDS011;25908;51.984;5.928;2023-06-10T03:51:04;7.85;;;4.70;;
39022;SDS011;25908;51.984;5.928;2023-06-10T03:53:30;6.57;;;4.30;;
39022;SDS011;25908;51.984;5.928;2023-06-10T03:55:56;6.95;;;4.43;;
39022;SDS011;25908;51.984;5.928;2023-06-10T03:58:22;8.70;;;4.45;;
39022;SDS011;25908;51.984;5.928;2023-06-10T04:00:48;6.85;;;4.78;;
39022;SDS011;25908;51.984;5.928;2023-06-10T04:03:14;7.45;;;4.38;;
39022;SDS011;25908;51.984;5.928;2023-06-10T04:05:40;7.10;;;4.40;;
39022;SDS011;25908;51.984;5.928;2023-06-10T04:08:07;6.50;;;4.47;;
39022;SDS011;25908;51.984;5.928;2023-06-10T04:10:32;7.28;;;4.57;;
39022;SDS011;25908;51.984;5.928;2023-06-10T04:12:58;7.63;;;4.38;;
39022;SDS011;25908;51.984;5.928;2023-06-10T04:15:24;5.70;;;4.10;;
39022;SDS011;25908;51.984;5.928;2023-06-10T04:17:50;7.80;;;4.47;;
39022;SDS011;25908;51.984;5.928;2023-06-10T04:20:17;7.75;;;4.25;;
39022;SDS011;25908;51.984;5.928;2023-06-10T04:22:43;5.95;;;4.03;;
39022;SDS011;25908;51.984;5.928;2023-06-10T04:25:09;6.75;;;4.40;;
39022;SDS011;25908;51.984;5.928;2023-06-10T04:27:35;6.93;;;4.30;;
39022;SDS011;25908;51.984;5.928;2023-06-10T04:30:00;7.20;;;4.40;;
39022;SDS011;25908;51.984;5.928;2023-06-10T04:32:26;7.82;;;3.97;;
39022;SDS011;25908;51.984;5.928;2023-06-10T04:34:52;7.32;;;4.60;;
39022;SDS011;25908;51.984;5.928;2023-06-10T04:37:17;5.93;;;4.22;;
39022;SDS011;25908;51.984;5.928;2023-06-10T04:39:43;10.10;;;4.68;;
39022;SDS011;25908;51.984;5.928;2023-06-10T04:42:09;7.50;;;4.30;;
39022;SDS011;25908;51.984;5.928;2023-06-10T04:44:34;8.52;;;4.82;;
39022;SDS011;25908;51.984;5.928;2023-06-10T04:47:00;6.80;;;4.43;;
39022;SDS011;25908;51.984;5.928;2023-06-10T04:49:26;7.13;;;4.93;;
39022;SDS011;25908;51.984;5.928;2023-06-10T04:51:51;8.25;;;4.78;;
39022;SDS011;25908;51.984;5.928;2023-06-10T04:54:17;7.47;;;4.78;;
39022;SDS011;25908;51.984;5.928;2023-06-10T04:56:42;9.57;;;4.55;;
39022;SDS011;25908;51.984;5.928;2023-06-10T04:59:08;8.88;;;5.07;;
39022;SDS011;25908;51.984;5.928;2023-06-10T05:01:33;9.52;;;4.55;;
39022;SDS011;25908;51.984;5.928;2023-06-10T05:03:59;6.40;;;4.70;;
39022;SDS011;25908;51.984;5.928;2023-06-10T05:06:24;9.05;;;4.63;;
39022;SDS011;25908;51.984;5.928;2023-06-10T05:08:50;5.45;;;3.92;;
39022;SDS011;25908;51.984;5.928;2023-06-10T05:11:15;6.68;;;4.50;;
39022;SDS011;25908;51.984;5.928;2023-06-10T05:13:41;7.05;;;4.72;;
39022;SDS011;25908;51.984;5.928;2023-06-10T05:16:07;9.98;;;4.57;;
39022;SDS011;25908;51.984;5.928;2023-06-10T05:18:34;7.45;;;5.25;;
39022;SDS011;25908;51.984;5.928;2023-06-10T05:21:00;6.50;;;4.90;;
39022;SDS011;25908;51.984;5.928;2023-06-10T05:23:26;9.27;;;5.10;;
39022;SDS011;25908;51.984;5.928;2023-06-10T05:25:51;9.27;;;4.43;;
39022;SDS011;25908;51.984;5.928;2023-06-10T05:28:17;7.60;;;4.47;;
39022;SDS011;25908;51.984;5.928;2023-06-10T05:30:43;5.75;;;4.07;;
39022;SDS011;25908;51.984;5.928;2023-06-10T05:33:08;6.93;;;4.80;;
39022;SDS011;25908;51.984;5.928;2023-06-10T05:35:34;7.88;;;5.20;;
39022;SDS011;25908;51.984;5.928;2023-06-10T05:38:00;7.25;;;4.90;;
39022;SDS011;25908;51.984;5.928;2023-06-10T05:40:25;7.40;;;4.40;;
39022;SDS011;25908;51.984;5.928;2023-06-10T05:42:51;8.07;;;4.60;;
39022;SDS011;25908;51.984;5.928;2023-06-10T05:45:16;7.25;;;4.28;;
39022;SDS011;25908;51.984;5.928;2023-06-10T05:47:42;7.18;;;4.88;;
39022;SDS011;25908;51.984;5.928;2023-06-10T05:50:07;7.18;;;4.10;;
39022;SDS011;25908;51.984;5.928;2023-06-10T05:52:34;8.02;;;4.32;;
39022;SDS011;25908;51.984;5.928;2023-06-10T05:55:01;7.07;;;4.22;;
39022;SDS011;25908;51.984;5.928;2023-06-10T05:57:27;6.82;;;4.35;;
39022;SDS011;25908;51.984;5.928;2023-06-10T05:59:52;7.15;;;4.55;;
39022;SDS011;25908;51.984;5.928;2023-06-10T06:02:18;8.27;;;5.18;;
39022;SDS011;25908;51.984;5.928;2023-06-10T06:04:43;9.48;;;4.78;;
39022;SDS011;25908;51.984;5.928;2023-06-10T06:07:09;6.18;;;4.45;;
39022;SDS011;25908;51.984;5.928;2023-06-10T06:09:35;8.50;;;4.93;;
39022;SDS011;25908;51.984;5.928;2023-06-10T06:12:00;8.73;;;4.30;;
39022;SDS011;25908;51.984;5.928;2023-06-10T06:14:26;8.57;;;4.75;;
39022;SDS011;25908;51.984;5.928;2023-06-10T06:16:55;9.25;;;4.30;;
39022;SDS011;25908;51.984;5.928;2023-06-10T06:19:21;7.10;;;4.40;;
39022;SDS011;25908;51.984;5.928;2023-06-10T06:21:46;9.73;;;5.07;;
39022;SDS011;25908;51.984;5.928;2023-06-10T06:24:12;6.25;;;4.13;;
39022;SDS011;25908;51.984;5.928;2023-06-10T06:26:39;6.90;;;4.38;;
39022;SDS011;25908;51.984;5.928;2023-06-10T06:29:04;5.57;;;3.97;;
39022;SDS011;25908;51.984;5.928;2023-06-10T06:31:30;6.93;;;4.35;;
39022;SDS011;25908;51.984;5.928;2023-06-10T06:33:56;6.65;;;4.43;;
39022;SDS011;25908;51.984;5.928;2023-06-10T06:36:21;8.27;;;4.18;;
39022;SDS011;25908;51.984;5.928;2023-06-10T06:38:47;7.45;;;4.40;;
39022;SDS011;25908;51.984;5.928;2023-06-10T06:41:12;7.70;;;4.20;;
39022;SDS011;25908;51.984;5.928;2023-06-10T06:43:38;7.03;;;4.10;;
39022;SDS011;25908;51.984;5.928;2023-06-10T06:46:05;6.82;;;4.47;;
39022;SDS011;25908;51.984;5.928;2023-06-10T06:48:30;6.60;;;4.50;;
39022;SDS011;25908;51.984;5.928;2023-06-10T06:50:56;7.63;;;4.55;;
39022;SDS011;25908;51.984;5.928;2023-06-10T06:53:23;6.47;;;3.58;;
39022;SDS011;25908;51.984;5.928;2023-06-10T06:55:48;5.72;;;3.80;;
39022;SDS011;25908;51.984;5.928;2023-06-10T06:58:14;8.75;;;4.53;;
39022;SDS011;25908;51.984;5.928;2023-06-10T07:00:39;6.18;;;3.88;;
39022;SDS011;25908;51.984;5.928;2023-06-10T07:03:05;6.55;;;4.28;;
39022;SDS011;25908;51.984;5.928;2023-06-10T07:05:30;6.18;;;4.15;;
39022;SDS011;25908;51.984;5.928;2023-06-10T07:07:56;6.53;;;3.97;;
39022;SDS011;25908;51.984;5.928;2023-06-10T07:10:22;5.72;;;3.40;;
39022;SDS011;25908;51.984;5.928;2023-06-10T07:12:49;6.55;;;3.67;;
39022;SDS011;25908;51.984;5.928;2023-06-10T07:15:15;6.38;;;3.67;;
39022;SDS011;25908;51.984;5.928;2023-06-10T07:17:41;6.38;;;3.83;;
39022;SDS011;25908;51.984;5.928;2023-06-10T07:20:07;5.70;;;3.40;;
39022;SDS011;25908;51.984;5.928;2023-06-10T07:22:33;6.00;;;3.38;;
39022;SDS011;25908;51.984;5.928;2023-06-10T07:24:58;5.57;;;3.63;;
39022;SDS011;25908;51.984;5.928;2023-06-10T07:27:24;4.65;;;3.03;;
39022;SDS011;25908;51.984;5.928;2023-06-10T07:29:50;6.40;;;3.67;;
39022;SDS011;25908;51.984;5.928;2023-06-10T07:32:16;4.65;;;3.05;;
39022;SDS011;25908;51.984;5.928;2023-06-10T07:34:42;5.07;;;3.47;;
39022;SDS011;25908;51.984;5.928;2023-06-10T07:37:08;5.50;;;3.50;;
39022;SDS011;25908;51.984;5.928;2023-06-10T07:39:33;4.72;;;3.22;;
39022;SDS011;25908;51.984;5.928;2023-06-10T07:41:59;6.10;;;3.50;;
39022;SDS011;25908;51.984;5.928;2023-06-10T07:44:25;4.40;;;3.45;;
39022;SDS011;25908;51.984;5.928;2023-06-10T07:46:51;5.85;;;3.70;;
39022;SDS011;25908;51.984;5.928;2023-06-10T07:49:16;4.82;;;3.13;;
39022;SDS011;25908;51.984;5.928;2023-06-10T07:51:42;4.30;;;3.25;;
39022;SDS011;25908;51.984;5.928;2023-06-10T07:54:07;4.63;;;3.60;;
39022;SDS011;25908;51.984;5.928;2023-06-10T07:56:33;7.35;;;3.80;;
39022;SDS011;25908;51.984;5.928;2023-06-10T07:58:58;5.28;;;3.40;;
39022;SDS011;25908;51.984;5.928;2023-06-10T08:01:24;6.18;;;3.60;;
39022;SDS011;25908;51.984;5.928;2023-06-10T08:03:50;5.57;;;3.50;;
39022;SDS011;25908;51.984;5.928;2023-06-10T08:06:15;5.65;;;3.03;;
39022;SDS011;25908;51.984;5.928;2023-06-10T08:08:42;5.10;;;3.58;;
39022;SDS011;25908;51.984;5.928;2023-06-10T08:11:09;5.68;;;3.17;;
39022;SDS011;25908;51.984;5.928;2023-06-10T08:13:36;5.10;;;3.13;;
39022;SDS011;25908;51.984;5.928;2023-06-10T08:16:02;5.95;;;3.58;;
39022;SDS011;25908;51.984;5.928;2023-06-10T08:18:28;6.45;;;3.42;;
39022;SDS011;25908;51.984;5.928;2023-06-10T08:20:53;4.85;;;3.35;;
39022;SDS011;25908;51.984;5.928;2023-06-10T08:23:19;6.60;;;3.53;;
39022;SDS011;25908;51.984;5.928;2023-06-10T08:25:45;6.10;;;3.40;;
39022;SDS011;25908;51.984;5.928;2023-06-10T08:28:10;3.75;;;2.92;;
39022;SDS011;25908;51.984;5.928;2023-06-10T08:30:36;5.15;;;3.22;;
39022;SDS011;25908;51.984;5.928;2023-06-10T08:33:02;5.95;;;3.30;;
39022;SDS011;25908;51.984;5.928;2023-06-10T08:35:27;4.50;;;3.30;;
39022;SDS011;25908;51.984;5.928;2023-06-10T08:37:53;5.25;;;3.33;;
39022;SDS011;25908;51.984;5.928;2023-06-10T08:40:18;4.53;;;3.50;;
39022;SDS011;25908;51.984;5.928;2023-06-10T08:45:32;5.07;;;3.30;;
39022;SDS011;25908;51.984;5.928;2023-06-10T08:48:00;6.70;;;3.33;;
39022;SDS011;25908;51.984;5.928;2023-06-10T08:50:34;4.43;;;3.00;;
39022;SDS011;25908;51.984;5.928;2023-06-10T08:53:06;4.70;;;3.08;;
39022;SDS011;25908;51.984;5.928;2023-06-10T08:55:33;6.55;;;3.30;;
39022;SDS011;25908;51.984;5.928;2023-06-10T08:58:01;6.03;;;3.20;;
39022;SDS011;25908;51.984;5.928;2023-06-10T09:00:27;6.13;;;3.45;;
39022;SDS011;25908;51.984;5.928;2023-06-10T09:02:55;4.95;;;2.67;;
39022;SDS011;25908;51.984;5.928;2023-06-10T09:05:22;4.90;;;3.45;;
39022;SDS011;25908;51.984;5.928;2023-06-10T09:07:48;6.45;;;3.15;;
39022;SDS011;25908;51.984;5.928;2023-06-10T09:10:15;5.43;;;2.80;;
39022;SDS011;25908;51.984;5.928;2023-06-10T09:12:41;6.53;;;3.42;;
39022;SDS011;25908;51.984;5.928;2023-06-10T09:15:07;5.07;;;2.92;;
39022;SDS011;25908;51.984;5.928;2023-06-10T09:17:33;3.90;;;2.67;;
39022;SDS011;25908;51.984;5.928;2023-06-10T09:20:02;5.55;;;3.20;;
39022;SDS011;25908;51.984;5.928;2023-06-10T09:22:28;4.20;;;2.80;;
39022;SDS011;25908;51.984;5.928;2023-06-10T09:25:07;5.65;;;2.70;;
39022;SDS011;25908;51.984;5.928;2023-06-10T09:30:27;4.90;;;2.83;;
39022;SDS011;25908;51.984;5.928;2023-06-10T09:32:58;7.32;;;2.90;;
39022;SDS011;25908;51.984;5.928;2023-06-10T09:35:27;5.82;;;2.60;;
39022;SDS011;25908;51.984;5.928;2023-06-10T09:37:57;5.45;;;3.00;;
39022;SDS011;25908;51.984;5.928;2023-06-10T09:40:23;5.95;;;3.53;;
39022;SDS011;25908;51.984;5.928;2023-06-10T09:42:53;4.38;;;2.90;;
39022;SDS011;25908;51.984;5.928;2023-06-10T09:45:25;3.70;;;2.83;;
39022;SDS011;25908;51.984;5.928;2023-06-10T09:47:56;3.72;;;2.60;;
39022;SDS011;25908;51.984;5.928;2023-06-10T09:50:21;3.72;;;2.72;;
39022;SDS011;25908;51.984;5.928;2023-06-10T09:52:47;5.75;;;2.88;;
39022;SDS011;25908;51.984;5.928;2023-06-10T09:55:13;4.75;;;3.35;;
39022;SDS011;25908;51.984;5.928;2023-06-10T09:57:39;4.30;;;2.20;;
39022;SDS011;25908;51.984;5.928;2023-06-10T10:00:07;4.25;;;2.97;;
39022;SDS011;25908;51.984;5.928;2023-06-10T10:02:52;6.28;;;3.20;;
39022;SDS011;25908;51.984;5.928;2023-06-10T10:05:19;4.78;;;3.20;;
39022;SDS011;25908;51.984;5.928;2023-06-10T10:07:46;6.25;;;3.08;;
39022;SDS011;25908;51.984;5.928;2023-06-10T10:10:13;4.85;;;2.75;;
39022;SDS011;25908;51.984;5.928;2023-06-10T10:12:40;6.60;;;3.13;;
39022;SDS011;25908;51.984;5.928;2023-06-10T10:15:08;4.68;;;3.20;;
39022;SDS011;25908;51.984;5.928;2023-06-10T10:20:34;4.28;;;2.78;;
39022;SDS011;25908;51.984;5.928;2023-06-10T10:23:07;5.20;;;2.50;;
39022;SDS011;25908;51.984;5.928;2023-06-10T10:25:35;4.63;;;2.70;;
39022;SDS011;25908;51.984;5.928;2023-06-10T10:30:28;5.20;;;2.78;;
39022;SDS011;25908;51.984;5.928;2023-06-10T10:33:05;5.20;;;2.90;;
39022;SDS011;25908;51.984;5.928;2023-06-10T10:35:37;3.47;;;2.70;;
39022;SDS011;25908;51.984;5.928;2023-06-10T10:38:04;5.10;;;3.10;;
39022;SDS011;25908;51.984;5.928;2023-06-10T10:40:31;3.80;;;2.60;;
39022;SDS011;25908;51.984;5.928;2023-06-10T10:42:58;4.63;;;2.63;;
39022;SDS011;25908;51.984;5.928;2023-06-10T10:45:24;3.88;;;2.88;;
39022;SDS011;25908;51.984;5.928;2023-06-10T10:47:53;4.88;;;2.47;;
39022;SDS011;25908;51.984;5.928;2023-06-10T10:50:20;4.50;;;2.97;;
39022;SDS011;25908;51.984;5.928;2023-06-10T10:52:54;3.40;;;2.40;;
39022;SDS011;25908;51.984;5.928;2023-06-10T10:55:22;4.38;;;3.20;;
39022;SDS011;25908;51.984;5.928;2023-06-10T10:57:53;3.63;;;2.60;;
39022;SDS011;25908;51.984;5.928;2023-06-10T11:00:36;3.97;;;2.58;;
39022;SDS011;25908;51.984;5.928;2023-06-10T11:03:14;5.53;;;2.53;;
39022;SDS011;25908;51.984;5.928;2023-06-10T11:08:12;5.05;;;2.83;;
39022;SDS011;25908;51.984;5.928;2023-06-10T11:10:50;4.85;;;2.60;;
39022;SDS011;25908;51.984;5.928;2023-06-10T11:13:19;3.95;;;2.90;;
39022;SDS011;25908;51.984;5.928;2023-06-10T11:15:46;4.25;;;2.90;;
39022;SDS011;25908;51.984;5.928;2023-06-10T11:25:50;3.17;;;2.45;;
39022;SDS011;25908;51.984;5.928;2023-06-10T11:28:19;6.40;;;2.90;;
39022;SDS011;25908;51.984;5.928;2023-06-10T11:30:46;4.53;;;3.20;;
39022;SDS011;25908;51.984;5.928;2023-06-10T11:33:22;4.78;;;3.00;;
39022;SDS011;25908;51.984;5.928;2023-06-10T11:35:49;4.03;;;2.45;;
39022;SDS011;25908;51.984;5.928;2023-06-10T11:38:15;3.38;;;2.63;;
39022;SDS011;25908;51.984;5.928;2023-06-10T11:40:46;6.43;;;3.10;;
39022;SDS011;25908;51.984;5.928;2023-06-10T11:43:17;4.75;;;2.80;;
39022;SDS011;25908;51.984;5.928;2023-06-10T11:45:43;4.00;;;2.75;;
39022;SDS011;25908;51.984;5.928;2023-06-10T11:48:09;4.97;;;2.63;;
39022;SDS011;25908;51.984;5.928;2023-06-10T11:50:35;4.05;;;2.55;;
39022;SDS011;25908;51.984;5.928;2023-06-10T11:53:02;4.32;;;2.92;;
39022;SDS011;25908;51.984;5.928;2023-06-10T11:55:45;5.97;;;2.95;;
39022;SDS011;25908;51.984;5.928;2023-06-10T11:58:20;3.38;;;2.40;;
39022;SDS011;25908;51.984;5.928;2023-06-10T12:00:53;7.45;;;2.72;;
39022;SDS011;25908;51.984;5.928;2023-06-10T12:03:23;3.80;;;3.00;;
39022;SDS011;25908;51.984;5.928;2023-06-10T12:06:08;4.53;;;3.00;;
39022;SDS011;25908;51.984;5.928;2023-06-10T12:08:34;4.68;;;2.72;;
39022;SDS011;25908;51.984;5.928;2023-06-10T12:11:06;5.63;;;3.15;;
39022;SDS011;25908;51.984;5.928;2023-06-10T12:13:32;3.92;;;2.63;;
39022;SDS011;25908;51.984;5.928;2023-06-10T12:16:07;3.92;;;2.60;;
39022;SDS011;25908;51.984;5.928;2023-06-10T12:18:34;4.10;;;2.88;;
39022;SDS011;25908;51.984;5.928;2023-06-10T12:20:59;7.03;;;3.35;;
39022;SDS011;25908;51.984;5.928;2023-06-10T12:23:25;4.60;;;3.15;;
39022;SDS011;25908;51.984;5.928;2023-06-10T12:25:51;3.97;;;2.97;;
39022;SDS011;25908;51.984;5.928;2023-06-10T12:28:24;5.05;;;2.90;;
39022;SDS011;25908;51.984;5.928;2023-06-10T12:30:51;5.03;;;2.97;;
39022;SDS011;25908;51.984;5.928;2023-06-10T12:33:17;5.07;;;3.40;;
39022;SDS011;25908;51.984;5.928;2023-06-10T12:35:47;3.97;;;2.92;;
39022;SDS011;25908;51.984;5.928;2023-06-10T12:38:14;4.70;;;3.10;;
39022;SDS011;25908;51.984;5.928;2023-06-10T12:40:46;5.10;;;3.35;;
39022;SDS011;25908;51.984;5.928;2023-06-10T12:43:12;4.38;;;3.55;;
39022;SDS011;25908;51.984;5.928;2023-06-10T12:45:38;4.00;;;3.08;;
39022;SDS011;25908;51.984;5.928;2023-06-10T12:48:11;7.50;;;3.00;;
39022;SDS011;25908;51.984;5.928;2023-06-10T12:50:42;4.22;;;2.63;;
39022;SDS011;25908;51.984;5.928;2023-06-10T12:53:09;5.22;;;3.17;;
39022;SDS011;25908;51.984;5.928;2023-06-10T12:55:36;4.18;;;3.13;;
39022;SDS011;25908;51.984;5.928;2023-06-10T12:58:02;5.97;;;3.35;;
39022;SDS011;25908;51.984;5.928;2023-06-10T13:00:29;4.55;;;3.10;;
39022;SDS011;25908;51.984;5.928;2023-06-10T13:03:00;4.18;;;3.10;;
39022;SDS011;25908;51.984;5.928;2023-06-10T13:05:26;4.00;;;3.08;;
39022;SDS011;25908;51.984;5.928;2023-06-10T13:07:53;4.10;;;3.17;;
39022;SDS011;25908;51.984;5.928;2023-06-10T13:10:20;5.07;;;3.17;;
39022;SDS011;25908;51.984;5.928;2023-06-10T13:12:46;8.02;;;3.67;;
39022;SDS011;25908;51.984;5.928;2023-06-10T13:15:12;4.88;;;3.33;;
39022;SDS011;25908;51.984;5.928;2023-06-10T13:17:39;4.68;;;3.50;;
39022;SDS011;25908;51.984;5.928;2023-06-10T13:20:05;5.82;;;3.28;;
39022;SDS011;25908;51.984;5.928;2023-06-10T13:22:32;4.40;;;3.40;;
39022;SDS011;25908;51.984;5.928;2023-06-10T13:25:00;5.00;;;3.38;;
39022;SDS011;25908;51.984;5.928;2023-06-10T13:27:26;5.95;;;3.40;;
39022;SDS011;25908;51.984;5.928;2023-06-10T13:29:52;4.90;;;3.30;;
39022;SDS011;25908;51.984;5.928;2023-06-10T13:32:18;4.70;;;3.40;;
39022;SDS011;25908;51.984;5.928;2023-06-10T13:34:43;4.72;;;3.53;;
39022;SDS011;25908;51.984;5.928;2023-06-10T13:37:09;5.60;;;3.33;;
39022;SDS011;25908;51.984;5.928;2023-06-10T13:39:35;5.15;;;3.80;;
39022;SDS011;25908;51.984;5.928;2023-06-10T13:42:01;5.57;;;3.72;;
39022;SDS011;25908;51.984;5.928;2023-06-10T13:44:26;4.85;;;3.70;;
39022;SDS011;25908;51.984;5.928;2023-06-10T13:46:55;4.63;;;3.13;;
39022;SDS011;25908;51.984;5.928;2023-06-10T13:49:21;4.68;;;3.35;;
39022;SDS011;25908;51.984;5.928;2023-06-10T13:51:47;5.20;;;3.03;;
39022;SDS011;25908;51.984;5.928;2023-06-10T13:54:13;5.10;;;3.83;;
39022;SDS011;25908;51.984;5.928;2023-06-10T13:56:40;5.35;;;3.65;;
39022;SDS011;25908;51.984;5.928;2023-06-10T13:59:06;3.83;;;2.90;;
39022;SDS011;25908;51.984;5.928;2023-06-10T14:01:31;5.93;;;3.40;;
39022;SDS011;25908;51.984;5.928;2023-06-10T14:03:57;5.10;;;3.50;;
39022;SDS011;25908;51.984;5.928;2023-06-10T14:06:23;5.13;;;3.70;;
39022;SDS011;25908;51.984;5.928;2023-06-10T14:08:48;5.22;;;3.30;;
39022;SDS011;25908;51.984;5.928;2023-06-10T14:11:14;5.03;;;3.33;;
39022;SDS011;25908;51.984;5.928;2023-06-10T14:13:40;4.20;;;3.03;;
39022;SDS011;25908;51.984;5.928;2023-06-10T14:16:05;5.70;;;3.55;;
39022;SDS011;25908;51.984;5.928;2023-06-10T14:18:31;4.93;;;3.47;;
39022;SDS011;25908;51.984;5.928;2023-06-10T14:20:56;4.00;;;3.20;;
39022;SDS011;25908;51.984;5.928;2023-06-10T14:23:22;4.28;;;3.03;;
39022;SDS011;25908;51.984;5.928;2023-06-10T14:25:49;3.80;;;2.83;;
39022;SDS011;25908;51.984;5.928;2023-06-10T14:28:15;4.75;;;3.17;;
39022;SDS011;25908;51.984;5.928;2023-06-10T14:30:40;4.53;;;3.13;;
39022;SDS011;25908;51.984;5.928;2023-06-10T14:33:06;4.65;;;3.30;;
39022;SDS011;25908;51.984;5.928;2023-06-10T14:35:31;5.15;;;3.53;;
39022;SDS011;25908;51.984;5.928;2023-06-10T14:37:57;5.55;;;3.42;;
39022;SDS011;25908;51.984;5.928;2023-06-10T14:40:22;6.60;;;3.72;;
39022;SDS011;25908;51.984;5.928;2023-06-10T14:42:49;5.90;;;3.63;;
39022;SDS011;25908;51.984;5.928;2023-06-10T14:45:15;5.40;;;3.15;;
39022;SDS011;25908;51.984;5.928;2023-06-10T14:47:41;6.93;;;3.80;;
39022;SDS011;25908;51.984;5.928;2023-06-10T14:50:06;5.22;;;3.38;;
39022;SDS011;25908;51.984;5.928;2023-06-10T14:52:32;5.22;;;3.63;;
39022;SDS011;25908;51.984;5.928;2023-06-10T14:54:58;9.00;;;3.95;;
39022;SDS011;25908;51.984;5.928;2023-06-10T14:57:23;3.92;;;3.03;;
39022;SDS011;25908;51.984;5.928;2023-06-10T14:59:49;4.72;;;3.40;;
39022;SDS011;25908;51.984;5.928;2023-06-10T15:02:14;6.95;;;3.47;;
39022;SDS011;25908;51.984;5.928;2023-06-10T15:04:40;5.38;;;3.70;;
39022;SDS011;25908;51.984;5.928;2023-06-10T15:07:05;6.55;;;3.20;;
39022;SDS011;25908;51.984;5.928;2023-06-10T15:09:31;4.80;;;3.40;;
39022;SDS011;25908;51.984;5.928;2023-06-10T15:11:57;4.65;;;3.30;;